sensor_id;sensor_type;location;lat;lon;timestamp;P1;durP1;ratioP1;P2;durP2;ratioP2
60060;SDS011;45933;51.336;12.612;2023-09-08T00:01:51;7.50;;;5.63;;
60060;SDS011;45933;51.336;12.612;2023-09-08T00:04:17;5.93;;;5.00;;
60060;SDS011;45933;51.336;12.612;2023-09-08T00:06:44;8.63;;;5.60;;
60060;SDS011;45933;51.336;12.612;2023-09-08T00:09:10;7.78;;;6.03;;
60060;SDS011;45933;51.336;12.612;2023-09-08T00:11:36;7.55;;;5.45;;
60060;SDS011;45933;51.336;12.612;2023-09-08T00:14:01;7.82;;;5.68;;
60060;SDS011;45933;51.336;12.612;2023-09-08T00:16:28;7.70;;;5.38;;
60060;SDS011;45933;51.336;12.612;2023-09-08T00:18:54;10.10;;;5.65;;
60060;SDS011;45933;51.336;12.612;2023-09-08T00:21:19;7.07;;;5.63;;
60060;SDS011;45933;51.336;12.612;2023-09-08T00:23:45;5.45;;;4.82;;
60060;SDS011;45933;51.336;12.612;2023-09-08T00:26:10;8.07;;;5.70;;
60060;SDS011;45933;51.336;12.612;2023-09-08T00:28:35;7.85;;;5.22;;
60060;SDS011;45933;51.336;12.612;2023-09-08T00:31:01;7.85;;;5.75;;
60060;SDS011;45933;51.336;12.612;2023-09-08T00:33:26;6.78;;;5.18;;
60060;SDS011;45933;51.336;12.612;2023-09-08T00:35:51;10.65;;;6.03;;
60060;SDS011;45933;51.336;12.612;2023-09-08T00:38:18;7.18;;;5.50;;
60060;SDS011;45933;51.336;12.612;2023-09-08T00:40:44;6.70;;;5.07;;
60060;SDS011;45933;51.336;12.612;2023-09-08T00:43:09;7.93;;;5.80;;
60060;SDS011;45933;51.336;12.612;2023-09-08T00:45:36;6.93;;;5.05;;
60060;SDS011;45933;51.336;12.612;2023-09-08T00:48:05;8.25;;;5.07;;
60060;SDS011;45933;51.336;12.612;2023-09-08T00:50:30;5.78;;;5.10;;
60060;SDS011;45933;51.336;12.612;2023-09-08T00:52:55;7.28;;;4.78;;
60060;SDS011;45933;51.336;12.612;2023-09-08T00:55:21;10.07;;;5.43;;
60060;SDS011;45933;51.336;12.612;2023-09-08T00:57:46;8.45;;;5.57;;
60060;SDS011;45933;51.336;12.612;2023-09-08T01:00:12;6.93;;;5.30;;
60060;SDS011;45933;51.336;12.612;2023-09-08T01:02:38;5.90;;;5.20;;
60060;SDS011;45933;51.336;12.612;2023-09-08T01:05:04;5.85;;;4.72;;
60060;SDS011;45933;51.336;12.612;2023-09-08T01:07:29;7.07;;;4.72;;
60060;SDS011;45933;51.336;12.612;2023-09-08T01:09:56;6.43;;;4.93;;
60060;SDS011;45933;51.336;12.612;2023-09-08T01:12:22;8.00;;;5.57;;
60060;SDS011;45933;51.336;12.612;2023-09-08T01:14:47;5.68;;;4.93;;
60060;SDS011;45933;51.336;12.612;2023-09-08T01:17:13;6.68;;;5.28;;
60060;SDS011;45933;51.336;12.612;2023-09-08T01:19:38;6.53;;;4.82;;
60060;SDS011;45933;51.336;12.612;2023-09-08T01:22:21;8.85;;;5.05;;
60060;SDS011;45933;51.336;12.612;2023-09-08T01:25:09;7.93;;;5.65;;
60060;SDS011;45933;51.336;12.612;2023-09-08T01:27:44;6.15;;;5.55;;
60060;SDS011;45933;51.336;12.612;2023-09-08T01:30:12;6.05;;;5.22;;
60060;SDS011;45933;51.336;12.612;2023-09-08T01:32:38;7.38;;;5.35;;
60060;SDS011;45933;51.336;12.612;2023-09-08T01:35:05;6.93;;;5.60;;
60060;SDS011;45933;51.336;12.612;2023-09-08T01:37:32;7.30;;;5.32;;
60060;SDS011;45933;51.336;12.612;2023-09-08T01:39:57;6.05;;;5.13;;
60060;SDS011;45933;51.336;12.612;2023-09-08T01:42:23;7.35;;;5.57;;
60060;SDS011;45933;51.336;12.612;2023-09-08T01:44:48;6.47;;;5.22;;
60060;SDS011;45933;51.336;12.612;2023-09-08T01:47:13;6.45;;;5.00;;
60060;SDS011;45933;51.336;12.612;2023-09-08T01:49:38;7.13;;;4.95;;
60060;SDS011;45933;51.336;12.612;2023-09-08T01:52:04;7.40;;;5.40;;
60060;SDS011;45933;51.336;12.612;2023-09-08T01:54:30;7.30;;;5.25;;
60060;SDS011;45933;51.336;12.612;2023-09-08T01:56:55;7.07;;;5.03;;
60060;SDS011;45933;51.336;12.612;2023-09-08T01:59:20;7.47;;;5.28;;
60060;SDS011;45933;51.336;12.612;2023-09-08T02:01:45;5.65;;;4.63;;
60060;SDS011;45933;51.336;12.612;2023-09-08T02:04:11;6.60;;;5.00;;
60060;SDS011;45933;51.336;12.612;2023-09-08T02:06:36;5.90;;;5.30;;
60060;SDS011;45933;51.336;12.612;2023-09-08T02:09:01;7.10;;;5.55;;
60060;SDS011;45933;51.336;12.612;2023-09-08T02:11:27;5.63;;;5.10;;
60060;SDS011;45933;51.336;12.612;2023-09-08T02:13:52;5.72;;;5.00;;
60060;SDS011;45933;51.336;12.612;2023-09-08T02:16:17;6.53;;;5.22;;
60060;SDS011;45933;51.336;12.612;2023-09-08T02:18:43;6.45;;;5.43;;
60060;SDS011;45933;51.336;12.612;2023-09-08T02:21:09;6.63;;;5.22;;
60060;SDS011;45933;51.336;12.612;2023-09-08T02:23:34;5.85;;;5.10;;
60060;SDS011;45933;51.336;12.612;2023-09-08T02:26:00;6.13;;;5.00;;
60060;SDS011;45933;51.336;12.612;2023-09-08T02:28:25;7.85;;;5.03;;
60060;SDS011;45933;51.336;12.612;2023-09-08T02:30:50;5.60;;;4.75;;
60060;SDS011;45933;51.336;12.612;2023-09-08T02:33:16;6.47;;;5.30;;
60060;SDS011;45933;51.336;12.612;2023-09-08T02:35:41;6.57;;;5.32;;
60060;SDS011;45933;51.336;12.612;2023-09-08T02:38:06;6.45;;;5.07;;
60060;SDS011;45933;51.336;12.612;2023-09-08T02:40:32;6.45;;;4.93;;
60060;SDS011;45933;51.336;12.612;2023-09-08T02:42:59;7.78;;;5.20;;
60060;SDS011;45933;51.336;12.612;2023-09-08T02:45:25;9.82;;;5.25;;
60060;SDS011;45933;51.336;12.612;2023-09-08T02:47:50;8.60;;;5.47;;
60060;SDS011;45933;51.336;12.612;2023-09-08T02:50:16;5.68;;;4.72;;
60060;SDS011;45933;51.336;12.612;2023-09-08T02:52:41;5.68;;;5.07;;
60060;SDS011;45933;51.336;12.612;2023-09-08T02:55:06;7.20;;;5.47;;
60060;SDS011;45933;51.336;12.612;2023-09-08T02:57:32;7.05;;;4.93;;
60060;SDS011;45933;51.336;12.612;2023-09-08T02:59:57;8.18;;;6.18;;
60060;SDS011;45933;51.336;12.612;2023-09-08T03:02:24;5.00;;;4.45;;
60060;SDS011;45933;51.336;12.612;2023-09-08T03:04:50;8.43;;;5.55;;
60060;SDS011;45933;51.336;12.612;2023-09-08T03:07:15;7.03;;;5.20;;
60060;SDS011;45933;51.336;12.612;2023-09-08T03:09:40;6.28;;;4.95;;
60060;SDS011;45933;51.336;12.612;2023-09-08T03:12:06;7.72;;;4.60;;
60060;SDS011;45933;51.336;12.612;2023-09-08T03:14:31;6.95;;;5.00;;
60060;SDS011;45933;51.336;12.612;2023-09-08T03:16:57;7.10;;;4.70;;
60060;SDS011;45933;51.336;12.612;2023-09-08T03:19:22;6.47;;;4.57;;
60060;SDS011;45933;51.336;12.612;2023-09-08T03:21:47;8.80;;;5.15;;
60060;SDS011;45933;51.336;12.612;2023-09-08T03:24:13;6.63;;;5.13;;
60060;SDS011;45933;51.336;12.612;2023-09-08T03:26:38;6.85;;;5.20;;
60060;SDS011;45933;51.336;12.612;2023-09-08T03:29:05;4.82;;;4.32;;
60060;SDS011;45933;51.336;12.612;2023-09-08T03:31:30;6.38;;;4.93;;
60060;SDS011;45933;51.336;12.612;2023-09-08T03:33:56;6.47;;;5.35;;
60060;SDS011;45933;51.336;12.612;2023-09-08T03:36:21;7.57;;;5.38;;
60060;SDS011;45933;51.336;12.612;2023-09-08T03:38:46;7.45;;;5.50;;
60060;SDS011;45933;51.336;12.612;2023-09-08T03:41:11;6.75;;;4.95;;
60060;SDS011;45933;51.336;12.612;2023-09-08T03:43:37;6.63;;;5.38;;
60060;SDS011;45933;51.336;12.612;2023-09-08T03:46:02;6.93;;;5.20;;
60060;SDS011;45933;51.336;12.612;2023-09-08T03:48:27;7.13;;;5.03;;
60060;SDS011;45933;51.336;12.612;2023-09-08T03:50:53;7.75;;;5.47;;
60060;SDS011;45933;51.336;12.612;2023-09-08T03:53:18;7.45;;;5.55;;
60060;SDS011;45933;51.336;12.612;2023-09-08T03:55:43;7.20;;;5.00;;
60060;SDS011;45933;51.336;12.612;2023-09-08T03:58:08;8.75;;;5.10;;
60060;SDS011;45933;51.336;12.612;2023-09-08T04:00:34;7.35;;;5.45;;
60060;SDS011;45933;51.336;12.612;2023-09-08T04:03:00;10.15;;;4.90;;
60060;SDS011;45933;51.336;12.612;2023-09-08T04:05:25;7.88;;;5.63;;
60060;SDS011;45933;51.336;12.612;2023-09-08T04:07:50;7.90;;;5.80;;
60060;SDS011;45933;51.336;12.612;2023-09-08T04:10:16;6.25;;;5.10;;
60060;SDS011;45933;51.336;12.612;2023-09-08T04:12:41;5.80;;;5.00;;
60060;SDS011;45933;51.336;12.612;2023-09-08T04:15:07;7.22;;;5.38;;
60060;SDS011;45933;51.336;12.612;2023-09-08T04:17:33;7.45;;;4.95;;
60060;SDS011;45933;51.336;12.612;2023-09-08T04:19:58;6.78;;;4.85;;
60060;SDS011;45933;51.336;12.612;2023-09-08T04:22:24;8.20;;;5.63;;
60060;SDS011;45933;51.336;12.612;2023-09-08T04:24:49;5.97;;;5.38;;
60060;SDS011;45933;51.336;12.612;2023-09-08T04:27:15;6.00;;;4.95;;
60060;SDS011;45933;51.336;12.612;2023-09-08T04:29:40;6.80;;;5.75;;
60060;SDS011;45933;51.336;12.612;2023-09-08T04:32:05;6.97;;;5.90;;
60060;SDS011;45933;51.336;12.612;2023-09-08T04:34:40;5.50;;;5.00;;
60060;SDS011;45933;51.336;12.612;2023-09-08T04:37:06;6.35;;;5.03;;
60060;SDS011;45933;51.336;12.612;2023-09-08T04:39:32;6.72;;;5.15;;
60060;SDS011;45933;51.336;12.612;2023-09-08T04:41:58;7.50;;;5.32;;
60060;SDS011;45933;51.336;12.612;2023-09-08T04:44:24;7.88;;;5.18;;
60060;SDS011;45933;51.336;12.612;2023-09-08T04:46:49;9.15;;;5.13;;
60060;SDS011;45933;51.336;12.612;2023-09-08T04:49:14;8.32;;;5.60;;
60060;SDS011;45933;51.336;12.612;2023-09-08T04:51:39;6.38;;;5.10;;
60060;SDS011;45933;51.336;12.612;2023-09-08T04:54:05;9.77;;;5.45;;
60060;SDS011;45933;51.336;12.612;2023-09-08T04:56:30;6.70;;;4.85;;
60060;SDS011;45933;51.336;12.612;2023-09-08T04:58:55;9.35;;;5.47;;
60060;SDS011;45933;51.336;12.612;2023-09-08T05:01:22;6.55;;;5.22;;
60060;SDS011;45933;51.336;12.612;2023-09-08T05:03:48;7.40;;;5.43;;
60060;SDS011;45933;51.336;12.612;2023-09-08T05:06:13;6.75;;;5.20;;
60060;SDS011;45933;51.336;12.612;2023-09-08T05:08:39;11.00;;;5.53;;
60060;SDS011;45933;51.336;12.612;2023-09-08T05:11:04;8.27;;;5.22;;
60060;SDS011;45933;51.336;12.612;2023-09-08T05:13:29;9.43;;;5.80;;
60060;SDS011;45933;51.336;12.612;2023-09-08T05:15:55;8.02;;;5.78;;
60060;SDS011;45933;51.336;12.612;2023-09-08T05:18:27;8.73;;;5.57;;
60060;SDS011;45933;51.336;12.612;2023-09-08T05:20:53;8.65;;;5.97;;
60060;SDS011;45933;51.336;12.612;2023-09-08T05:23:18;9.65;;;5.50;;
60060;SDS011;45933;51.336;12.612;2023-09-08T05:25:44;12.13;;;5.78;;
60060;SDS011;45933;51.336;12.612;2023-09-08T05:28:10;9.15;;;5.80;;
60060;SDS011;45933;51.336;12.612;2023-09-08T05:30:35;7.30;;;5.47;;
60060;SDS011;45933;51.336;12.612;2023-09-08T05:33:00;10.38;;;6.20;;
60060;SDS011;45933;51.336;12.612;2023-09-08T05:35:26;11.98;;;6.53;;
60060;SDS011;45933;51.336;12.612;2023-09-08T05:37:51;8.35;;;5.88;;
60060;SDS011;45933;51.336;12.612;2023-09-08T05:40:16;8.63;;;5.88;;
60060;SDS011;45933;51.336;12.612;2023-09-08T05:42:43;8.07;;;5.18;;
60060;SDS011;45933;51.336;12.612;2023-09-08T05:45:09;8.57;;;5.35;;
60060;SDS011;45933;51.336;12.612;2023-09-08T05:47:34;10.52;;;5.45;;
60060;SDS011;45933;51.336;12.612;2023-09-08T05:50:00;8.00;;;5.63;;
60060;SDS011;45933;51.336;12.612;2023-09-08T05:52:26;7.88;;;5.60;;
60060;SDS011;45933;51.336;12.612;2023-09-08T05:54:53;9.93;;;5.72;;
60060;SDS011;45933;51.336;12.612;2023-09-08T05:57:18;8.60;;;5.75;;
60060;SDS011;45933;51.336;12.612;2023-09-08T05:59:43;7.30;;;5.47;;
60060;SDS011;45933;51.336;12.612;2023-09-08T06:02:09;8.15;;;5.70;;
60060;SDS011;45933;51.336;12.612;2023-09-08T06:04:34;7.22;;;5.22;;
60060;SDS011;45933;51.336;12.612;2023-09-08T06:06:59;10.43;;;6.28;;
60060;SDS011;45933;51.336;12.612;2023-09-08T06:09:25;6.05;;;5.30;;
60060;SDS011;45933;51.336;12.612;2023-09-08T06:11:50;6.32;;;5.45;;
60060;SDS011;45933;51.336;12.612;2023-09-08T06:14:15;10.73;;;5.50;;
60060;SDS011;45933;51.336;12.612;2023-09-08T06:16:40;7.25;;;4.97;;
60060;SDS011;45933;51.336;12.612;2023-09-08T06:19:06;7.82;;;5.18;;
60060;SDS011;45933;51.336;12.612;2023-09-08T06:21:32;8.38;;;4.95;;
60060;SDS011;45933;51.336;12.612;2023-09-08T06:23:57;6.78;;;4.90;;
60060;SDS011;45933;51.336;12.612;2023-09-08T06:26:22;7.15;;;5.35;;
60060;SDS011;45933;51.336;12.612;2023-09-08T06:28:48;7.20;;;5.40;;
60060;SDS011;45933;51.336;12.612;2023-09-08T06:31:13;6.82;;;5.60;;
60060;SDS011;45933;51.336;12.612;2023-09-08T06:33:39;7.22;;;5.50;;
60060;SDS011;45933;51.336;12.612;2023-09-08T06:36:05;7.28;;;5.38;;
60060;SDS011;45933;51.336;12.612;2023-09-08T06:38:31;7.32;;;5.30;;
60060;SDS011;45933;51.336;12.612;2023-09-08T06:40:56;6.63;;;4.95;;
60060;SDS011;45933;51.336;12.612;2023-09-08T06:43:22;7.35;;;5.57;;
60060;SDS011;45933;51.336;12.612;2023-09-08T06:45:50;9.80;;;5.97;;
60060;SDS011;45933;51.336;12.612;2023-09-08T06:48:15;5.82;;;5.10;;
60060;SDS011;45933;51.336;12.612;2023-09-08T06:50:41;8.82;;;5.75;;
60060;SDS011;45933;51.336;12.612;2023-09-08T06:53:06;7.05;;;5.25;;
60060;SDS011;45933;51.336;12.612;2023-09-08T06:55:32;8.85;;;5.35;;
60060;SDS011;45933;51.336;12.612;2023-09-08T06:57:57;6.60;;;5.40;;
60060;SDS011;45933;51.336;12.612;2023-09-08T07:00:23;6.88;;;5.00;;
60060;SDS011;45933;51.336;12.612;2023-09-08T07:02:48;5.97;;;4.93;;
60060;SDS011;45933;51.336;12.612;2023-09-08T07:05:16;7.65;;;5.72;;
60060;SDS011;45933;51.336;12.612;2023-09-08T07:07:42;6.45;;;5.75;;
60060;SDS011;45933;51.336;12.612;2023-09-08T07:10:07;6.50;;;5.45;;
60060;SDS011;45933;51.336;12.612;2023-09-08T07:12:33;6.03;;;5.40;;
60060;SDS011;45933;51.336;12.612;2023-09-08T07:14:59;7.55;;;5.93;;
60060;SDS011;45933;51.336;12.612;2023-09-08T07:17:24;7.47;;;4.85;;
60060;SDS011;45933;51.336;12.612;2023-09-08T07:19:50;5.72;;;5.20;;
60060;SDS011;45933;51.336;12.612;2023-09-08T07:22:15;6.97;;;5.22;;
60060;SDS011;45933;51.336;12.612;2023-09-08T07:24:41;11.25;;;5.80;;
60060;SDS011;45933;51.336;12.612;2023-09-08T07:27:07;6.20;;;5.20;;
60060;SDS011;45933;51.336;12.612;2023-09-08T07:29:32;9.13;;;5.57;;
60060;SDS011;45933;51.336;12.612;2023-09-08T07:31:58;7.82;;;5.55;;
60060;SDS011;45933;51.336;12.612;2023-09-08T07:34:23;7.07;;;5.63;;
60060;SDS011;45933;51.336;12.612;2023-09-08T07:36:49;8.27;;;5.47;;
60060;SDS011;45933;51.336;12.612;2023-09-08T07:39:14;8.27;;;5.45;;
60060;SDS011;45933;51.336;12.612;2023-09-08T07:41:39;8.38;;;5.55;;
60060;SDS011;45933;51.336;12.612;2023-09-08T07:44:05;7.43;;;5.25;;
60060;SDS011;45933;51.336;12.612;2023-09-08T07:46:31;6.72;;;4.63;;
60060;SDS011;45933;51.336;12.612;2023-09-08T07:48:57;7.53;;;5.80;;
60060;SDS011;45933;51.336;12.612;2023-09-08T07:51:23;7.57;;;5.30;;
60060;SDS011;45933;51.336;12.612;2023-09-08T07:53:48;7.13;;;5.50;;
60060;SDS011;45933;51.336;12.612;2023-09-08T07:56:14;6.00;;;5.20;;
60060;SDS011;45933;51.336;12.612;2023-09-08T07:58:39;6.10;;;5.25;;
60060;SDS011;45933;51.336;12.612;2023-09-08T08:01:04;6.95;;;4.78;;
60060;SDS011;45933;51.336;12.612;2023-09-08T08:03:30;7.82;;;4.63;;
60060;SDS011;45933;51.336;12.612;2023-09-08T08:05:56;5.60;;;4.97;;
60060;SDS011;45933;51.336;12.612;2023-09-08T08:08:21;7.07;;;5.50;;
60060;SDS011;45933;51.336;12.612;2023-09-08T08:10:47;5.38;;;4.80;;
60060;SDS011;45933;51.336;12.612;2023-09-08T08:13:12;5.80;;;4.85;;
60060;SDS011;45933;51.336;12.612;2023-09-08T08:15:39;8.77;;;5.50;;
60060;SDS011;45933;51.336;12.612;2023-09-08T08:18:05;5.82;;;4.90;;
60060;SDS011;45933;51.336;12.612;2023-09-08T08:20:31;12.07;;;5.50;;
60060;SDS011;45933;51.336;12.612;2023-09-08T08:23:00;11.07;;;4.93;;
60060;SDS011;45933;51.336;12.612;2023-09-08T08:25:27;12.23;;;5.03;;
60060;SDS011;45933;51.336;12.612;2023-09-08T08:27:52;5.47;;;4.72;;
60060;SDS011;45933;51.336;12.612;2023-09-08T08:30:18;8.27;;;4.93;;
60060;SDS011;45933;51.336;12.612;2023-09-08T08:32:43;5.38;;;4.72;;
60060;SDS011;45933;51.336;12.612;2023-09-08T08:35:08;5.70;;;5.05;;
60060;SDS011;45933;51.336;12.612;2023-09-08T08:37:34;7.53;;;5.00;;
60060;SDS011;45933;51.336;12.612;2023-09-08T08:40:00;5.75;;;4.72;;
60060;SDS011;45933;51.336;12.612;2023-09-08T08:42:30;7.63;;;4.80;;
60060;SDS011;45933;51.336;12.612;2023-09-08T08:45:00;7.47;;;4.85;;
60060;SDS011;45933;51.336;12.612;2023-09-08T08:47:27;4.82;;;4.32;;
60060;SDS011;45933;51.336;12.612;2023-09-08T08:49:54;5.40;;;4.85;;
60060;SDS011;45933;51.336;12.612;2023-09-08T08:52:21;6.65;;;4.90;;
60060;SDS011;45933;51.336;12.612;2023-09-08T08:54:47;5.40;;;4.90;;
60060;SDS011;45933;51.336;12.612;2023-09-08T08:57:12;9.48;;;5.03;;
60060;SDS011;45933;51.336;12.612;2023-09-08T08:59:38;11.98;;;5.25;;
60060;SDS011;45933;51.336;12.612;2023-09-08T09:02:06;6.97;;;4.63;;
60060;SDS011;45933;51.336;12.612;2023-09-08T09:04:33;5.65;;;4.88;;
60060;SDS011;45933;51.336;12.612;2023-09-08T09:07:01;6.57;;;5.15;;
60060;SDS011;45933;51.336;12.612;2023-09-08T09:09:29;6.78;;;5.25;;
60060;SDS011;45933;51.336;12.612;2023-09-08T09:11:54;6.43;;;4.95;;
60060;SDS011;45933;51.336;12.612;2023-09-08T09:14:20;6.97;;;5.97;;
60060;SDS011;45933;51.336;12.612;2023-09-08T09:16:45;6.22;;;5.43;;
60060;SDS011;45933;51.336;12.612;2023-09-08T09:19:22;5.40;;;4.90;;
60060;SDS011;45933;51.336;12.612;2023-09-08T09:21:53;5.18;;;4.65;;
60060;SDS011;45933;51.336;12.612;2023-09-08T09:24:30;5.93;;;4.75;;
60060;SDS011;45933;51.336;12.612;2023-09-08T09:27:02;10.10;;;5.38;;
60060;SDS011;45933;51.336;12.612;2023-09-08T09:29:30;6.38;;;5.30;;
60060;SDS011;45933;51.336;12.612;2023-09-08T09:32:05;6.72;;;5.45;;
60060;SDS011;45933;51.336;12.612;2023-09-08T09:34:33;5.70;;;4.72;;
60060;SDS011;45933;51.336;12.612;2023-09-08T09:36:59;6.22;;;4.97;;
60060;SDS011;45933;51.336;12.612;2023-09-08T09:39:25;7.88;;;5.13;;
60060;SDS011;45933;51.336;12.612;2023-09-08T09:41:56;5.82;;;4.93;;
60060;SDS011;45933;51.336;12.612;2023-09-08T09:44:22;6.07;;;5.30;;
60060;SDS011;45933;51.336;12.612;2023-09-08T09:46:50;5.95;;;5.00;;
60060;SDS011;45933;51.336;12.612;2023-09-08T09:49:17;5.15;;;4.65;;
60060;SDS011;45933;51.336;12.612;2023-09-08T09:51:43;8.77;;;5.55;;
60060;SDS011;45933;51.336;12.612;2023-09-08T09:54:10;6.30;;;5.28;;
60060;SDS011;45933;51.336;12.612;2023-09-08T09:56:37;7.28;;;5.13;;
60060;SDS011;45933;51.336;12.612;2023-09-08T09:59:03;5.75;;;5.25;;
60060;SDS011;45933;51.336;12.612;2023-09-08T10:01:29;6.30;;;5.05;;
60060;SDS011;45933;51.336;12.612;2023-09-08T10:03:55;6.00;;;5.15;;
60060;SDS011;45933;51.336;12.612;2023-09-08T10:06:21;5.82;;;5.22;;
60060;SDS011;45933;51.336;12.612;2023-09-08T10:08:47;5.38;;;4.63;;
60060;SDS011;45933;51.336;12.612;2023-09-08T10:11:14;7.57;;;5.07;;
60060;SDS011;45933;51.336;12.612;2023-09-08T10:13:45;6.28;;;5.57;;
60060;SDS011;45933;51.336;12.612;2023-09-08T10:16:13;6.90;;;5.15;;
60060;SDS011;45933;51.336;12.612;2023-09-08T10:18:43;5.57;;;5.07;;
60060;SDS011;45933;51.336;12.612;2023-09-08T10:21:10;6.40;;;5.15;;
60060;SDS011;45933;51.336;12.612;2023-09-08T10:23:38;5.20;;;4.70;;
60060;SDS011;45933;51.336;12.612;2023-09-08T10:26:09;5.38;;;4.88;;
60060;SDS011;45933;51.336;12.612;2023-09-08T10:28:35;6.25;;;5.45;;
60060;SDS011;45933;51.336;12.612;2023-09-08T10:31:02;5.65;;;4.95;;
60060;SDS011;45933;51.336;12.612;2023-09-08T10:33:28;6.13;;;5.40;;
60060;SDS011;45933;51.336;12.612;2023-09-08T10:35:54;6.85;;;5.28;;
60060;SDS011;45933;51.336;12.612;2023-09-08T10:38:21;5.85;;;5.03;;
60060;SDS011;45933;51.336;12.612;2023-09-08T10:40:48;5.82;;;5.18;;
60060;SDS011;45933;51.336;12.612;2023-09-08T10:43:14;6.55;;;5.85;;
60060;SDS011;45933;51.336;12.612;2023-09-08T10:45:39;5.75;;;5.25;;
60060;SDS011;45933;51.336;12.612;2023-09-08T10:48:06;5.18;;;4.70;;
60060;SDS011;45933;51.336;12.612;2023-09-08T10:50:32;8.27;;;5.38;;
60060;SDS011;45933;51.336;12.612;2023-09-08T10:55:35;5.55;;;4.55;;
60060;SDS011;45933;51.336;12.612;2023-09-08T10:58:29;7.05;;;4.88;;
60060;SDS011;45933;51.336;12.612;2023-09-08T11:00:58;6.07;;;5.40;;
60060;SDS011;45933;51.336;12.612;2023-09-08T11:03:47;4.88;;;4.38;;
60060;SDS011;45933;51.336;12.612;2023-09-08T11:06:17;5.80;;;5.20;;
60060;SDS011;45933;51.336;12.612;2023-09-08T11:08:44;5.63;;;5.13;;
60060;SDS011;45933;51.336;12.612;2023-09-08T11:11:14;5.68;;;5.15;;
60060;SDS011;45933;51.336;12.612;2023-09-08T11:13:41;6.15;;;5.18;;
60060;SDS011;45933;51.336;12.612;2023-09-08T11:16:06;5.72;;;5.10;;
60060;SDS011;45933;51.336;12.612;2023-09-08T11:18:33;5.90;;;5.30;;
60060;SDS011;45933;51.336;12.612;2023-09-08T11:20:59;5.60;;;5.10;;
60060;SDS011;45933;51.336;12.612;2023-09-08T11:23:29;5.72;;;5.18;;
60060;SDS011;45933;51.336;12.612;2023-09-08T11:25:56;6.35;;;5.80;;
60060;SDS011;45933;51.336;12.612;2023-09-08T11:28:21;8.15;;;5.32;;
60060;SDS011;45933;51.336;12.612;2023-09-08T11:30:48;5.65;;;5.15;;
60060;SDS011;45933;51.336;12.612;2023-09-08T11:33:18;5.47;;;5.07;;
60060;SDS011;45933;51.336;12.612;2023-09-08T11:35:47;8.65;;;5.55;;
60060;SDS011;45933;51.336;12.612;2023-09-08T11:38:13;7.35;;;5.38;;
60060;SDS011;45933;51.336;12.612;2023-09-08T11:40:39;5.43;;;4.93;;
60060;SDS011;45933;51.336;12.612;2023-09-08T11:43:05;5.70;;;5.20;;
60060;SDS011;45933;51.336;12.612;2023-09-08T11:45:33;5.97;;;4.90;;
60060;SDS011;45933;51.336;12.612;2023-09-08T11:48:00;7.35;;;4.95;;
60060;SDS011;45933;51.336;12.612;2023-09-08T11:50:25;6.45;;;4.95;;
60060;SDS011;45933;51.336;12.612;2023-09-08T11:52:51;6.32;;;5.28;;
60060;SDS011;45933;51.336;12.612;2023-09-08T11:55:18;5.50;;;5.00;;
60060;SDS011;45933;51.336;12.612;2023-09-08T11:57:49;6.63;;;5.30;;
60060;SDS011;45933;51.336;12.612;2023-09-08T12:00:19;4.82;;;4.43;;
60060;SDS011;45933;51.336;12.612;2023-09-08T12:02:47;7.18;;;5.18;;
60060;SDS011;45933;51.336;12.612;2023-09-08T12:05:20;5.47;;;4.97;;
60060;SDS011;45933;51.336;12.612;2023-09-08T12:07:51;5.35;;;4.95;;
60060;SDS011;45933;51.336;12.612;2023-09-08T12:10:18;5.70;;;5.07;;
60060;SDS011;45933;51.336;12.612;2023-09-08T12:12:48;5.30;;;4.82;;
60060;SDS011;45933;51.336;12.612;2023-09-08T12:15:32;4.82;;;4.30;;
60060;SDS011;45933;51.336;12.612;2023-09-08T12:20:32;5.35;;;4.85;;
60060;SDS011;45933;51.336;12.612;2023-09-08T12:23:02;5.45;;;4.65;;
60060;SDS011;45933;51.336;12.612;2023-09-08T12:25:30;5.13;;;4.63;;
60060;SDS011;45933;51.336;12.612;2023-09-08T12:27:59;5.18;;;4.78;;
60060;SDS011;45933;51.336;12.612;2023-09-08T12:30:25;5.18;;;4.68;;
60060;SDS011;45933;51.336;12.612;2023-09-08T12:32:57;5.05;;;4.55;;
60060;SDS011;45933;51.336;12.612;2023-09-08T12:35:24;6.78;;;5.20;;
60060;SDS011;45933;51.336;12.612;2023-09-08T12:37:57;6.28;;;4.57;;
60060;SDS011;45933;51.336;12.612;2023-09-08T12:40:24;4.93;;;4.53;;
60060;SDS011;45933;51.336;12.612;2023-09-08T12:42:50;5.05;;;4.50;;
60060;SDS011;45933;51.336;12.612;2023-09-08T12:45:15;4.50;;;4.15;;
60060;SDS011;45933;51.336;12.612;2023-09-08T12:47:41;6.63;;;4.38;;
60060;SDS011;45933;51.336;12.612;2023-09-08T12:50:06;5.63;;;4.90;;
60060;SDS011;45933;51.336;12.612;2023-09-08T12:52:32;4.70;;;4.30;;
60060;SDS011;45933;51.336;12.612;2023-09-08T12:54:57;4.50;;;4.13;;
60060;SDS011;45933;51.336;12.612;2023-09-08T12:57:23;5.47;;;4.30;;
60060;SDS011;45933;51.336;12.612;2023-09-08T12:59:48;4.55;;;4.20;;
60060;SDS011;45933;51.336;12.612;2023-09-08T13:02:16;4.13;;;3.83;;
60060;SDS011;45933;51.336;12.612;2023-09-08T13:04:41;6.55;;;4.75;;
60060;SDS011;45933;51.336;12.612;2023-09-08T13:07:06;4.72;;;4.30;;
60060;SDS011;45933;51.336;12.612;2023-09-08T13:09:32;4.78;;;4.18;;
60060;SDS011;45933;51.336;12.612;2023-09-08T13:11:57;5.95;;;4.40;;
60060;SDS011;45933;51.336;12.612;2023-09-08T13:14:22;6.30;;;4.63;;
60060;SDS011;45933;51.336;12.612;2023-09-08T13:16:47;4.85;;;4.45;;
60060;SDS011;45933;51.336;12.612;2023-09-08T13:19:13;5.50;;;3.83;;
60060;SDS011;45933;51.336;12.612;2023-09-08T13:21:38;6.05;;;4.88;;
60060;SDS011;45933;51.336;12.612;2023-09-08T13:24:05;4.75;;;4.35;;
60060;SDS011;45933;51.336;12.612;2023-09-08T13:26:31;7.78;;;4.55;;
60060;SDS011;45933;51.336;12.612;2023-09-08T13:28:57;5.07;;;4.30;;
60060;SDS011;45933;51.336;12.612;2023-09-08T13:31:22;4.68;;;4.00;;
60060;SDS011;45933;51.336;12.612;2023-09-08T13:33:47;5.50;;;4.50;;
60060;SDS011;45933;51.336;12.612;2023-09-08T13:36:12;9.13;;;4.35;;
60060;SDS011;45933;51.336;12.612;2023-09-08T13:38:38;5.68;;;3.70;;
60060;SDS011;45933;51.336;12.612;2023-09-08T13:41:03;4.97;;;4.30;;
60060;SDS011;45933;51.336;12.612;2023-09-08T13:43:28;5.63;;;4.15;;
60060;SDS011;45933;51.336;12.612;2023-09-08T13:45:54;8.38;;;4.28;;
60060;SDS011;45933;51.336;12.612;2023-09-08T13:48:21;5.88;;;4.18;;
60060;SDS011;45933;51.336;12.612;2023-09-08T13:50:47;4.55;;;4.13;;
60060;SDS011;45933;51.336;12.612;2023-09-08T13:53:12;4.63;;;3.90;;
60060;SDS011;45933;51.336;12.612;2023-09-08T13:55:37;4.70;;;3.65;;
60060;SDS011;45933;51.336;12.612;2023-09-08T13:58:03;4.22;;;3.70;;
60060;SDS011;45933;51.336;12.612;2023-09-08T14:00:28;5.07;;;4.20;;
60060;SDS011;45933;51.336;12.612;2023-09-08T14:02:53;4.20;;;3.75;;
60060;SDS011;45933;51.336;12.612;2023-09-08T14:05:19;4.15;;;3.67;;
60060;SDS011;45933;51.336;12.612;2023-09-08T14:07:44;4.30;;;3.80;;
60060;SDS011;45933;51.336;12.612;2023-09-08T14:10:09;6.88;;;4.85;;
60060;SDS011;45933;51.336;12.612;2023-09-08T14:12:35;4.55;;;3.83;;
60060;SDS011;45933;51.336;12.612;2023-09-08T14:15:00;7.30;;;4.28;;
60060;SDS011;45933;51.336;12.612;2023-09-08T14:17:26;4.45;;;4.05;;
60060;SDS011;45933;51.336;12.612;2023-09-08T14:19:51;8.02;;;4.05;;
60060;SDS011;45933;51.336;12.612;2023-09-08T14:22:16;4.32;;;3.92;;
60060;SDS011;45933;51.336;12.612;2023-09-08T14:24:42;4.75;;;3.90;;
60060;SDS011;45933;51.336;12.612;2023-09-08T14:27:07;4.00;;;3.58;;
60060;SDS011;45933;51.336;12.612;2023-09-08T14:29:33;4.45;;;3.35;;
60060;SDS011;45933;51.336;12.612;2023-09-08T14:31:59;3.85;;;3.55;;
60060;SDS011;45933;51.336;12.612;2023-09-08T14:34:24;4.60;;;4.20;;